sensor_id;sensor_type;location;lat;lon;timestamp;P1;durP1;ratioP1;P2;durP2;ratioP2
50547;SDS011;38013;48.810;8.818;2023-01-01T00:02:23;91.07;;;57.33;;
50547;SDS011;38013;48.810;8.818;2023-01-01T00:04:50;88.43;;;56.80;;
50547;SDS011;38013;48.810;8.818;2023-01-01T00:07:16;71.72;;;46.90;;
50547;SDS011;38013;48.810;8.818;2023-01-01T00:09:43;51.20;;;30.48;;
50547;SDS011;38013;48.810;8.818;2023-01-01T00:12:30;98.38;;;47.70;;
50547;SDS011;38013;48.810;8.818;2023-01-01T00:14:58;56.22;;;31.63;;
50547;SDS011;38013;48.810;8.818;2023-01-01T00:17:24;48.65;;;29.13;;
50547;SDS011;38013;48.810;8.818;2023-01-01T00:19:51;46.78;;;27.92;;
50547;SDS011;38013;48.810;8.818;2023-01-01T00:22:18;31.48;;;19.65;;
50547;SDS011;38013;48.810;8.818;2023-01-01T00:25:05;33.85;;;19.23;;
50547;SDS011;38013;48.810;8.818;2023-01-01T00:27:32;30.35;;;18.70;;
50547;SDS011;38013;48.810;8.818;2023-01-01T00:29:59;31.92;;;18.73;;
50547;SDS011;38013;48.810;8.818;2023-01-01T00:32:26;27.10;;;14.45;;
50547;SDS011;38013;48.810;8.818;2023-01-01T00:34:53;19.95;;;12.95;;
50547;SDS011;38013;48.810;8.818;2023-01-01T00:37:20;19.58;;;11.75;;
50547;SDS011;38013;48.810;8.818;2023-01-01T00:39:47;19.55;;;12.65;;
50547;SDS011;38013;48.810;8.818;2023-01-01T00:42:13;23.23;;;14.10;;
50547;SDS011;38013;48.810;8.818;2023-01-01T00:44:40;23.40;;;13.95;;
50547;SDS011;38013;48.810;8.818;2023-01-01T00:47:07;18.80;;;13.07;;
50547;SDS011;38013;48.810;8.818;2023-01-01T00:49:34;22.92;;;14.23;;
50547;SDS011;38013;48.810;8.818;2023-01-01T00:52:01;18.00;;;11.63;;
50547;SDS011;38013;48.810;8.818;2023-01-01T00:54:28;17.83;;;11.40;;
50547;SDS011;38013;48.810;8.818;2023-01-01T00:56:54;17.02;;;10.73;;
50547;SDS011;38013;48.810;8.818;2023-01-01T00:59:22;20.90;;;12.05;;
50547;SDS011;38013;48.810;8.818;2023-01-01T01:01:54;30.67;;;17.40;;
50547;SDS011;38013;48.810;8.818;2023-01-01T01:04:21;34.65;;;18.83;;
50547;SDS011;38013;48.810;8.818;2023-01-01T01:06:48;28.58;;;17.20;;
50547;SDS011;38013;48.810;8.818;2023-01-01T01:09:15;26.38;;;15.15;;
50547;SDS011;38013;48.810;8.818;2023-01-01T01:11:42;31.58;;;18.95;;
50547;SDS011;38013;48.810;8.818;2023-01-01T01:14:09;33.33;;;20.38;;
50547;SDS011;38013;48.810;8.818;2023-01-01T01:16:36;33.72;;;21.70;;
50547;SDS011;38013;48.810;8.818;2023-01-01T01:19:03;35.25;;;22.17;;
50547;SDS011;38013;48.810;8.818;2023-01-01T01:21:32;45.85;;;28.42;;
50547;SDS011;38013;48.810;8.818;2023-01-01T01:24:00;42.50;;;25.63;;
50547;SDS011;38013;48.810;8.818;2023-01-01T01:26:29;42.15;;;26.90;;
50547;SDS011;38013;48.810;8.818;2023-01-01T01:28:58;44.95;;;26.52;;
50547;SDS011;38013;48.810;8.818;2023-01-01T01:31:26;35.80;;;23.77;;
50547;SDS011;38013;48.810;8.818;2023-01-01T01:33:56;35.80;;;23.73;;
50547;SDS011;38013;48.810;8.818;2023-01-01T01:36:23;29.20;;;19.15;;
50547;SDS011;38013;48.810;8.818;2023-01-01T01:38:51;29.17;;;18.58;;
50547;SDS011;38013;48.810;8.818;2023-01-01T01:41:19;34.33;;;20.35;;
50547;SDS011;38013;48.810;8.818;2023-01-01T01:43:58;28.73;;;19.27;;
50547;SDS011;38013;48.810;8.818;2023-01-01T01:46:32;24.83;;;15.50;;
50547;SDS011;38013;48.810;8.818;2023-01-01T01:49:14;23.60;;;14.30;;
50547;SDS011;38013;48.810;8.818;2023-01-01T01:51:47;21.20;;;11.73;;
50547;SDS011;38013;48.810;8.818;2023-01-01T01:54:16;22.02;;;12.98;;
50547;SDS011;38013;48.810;8.818;2023-01-01T01:59:25;19.02;;;11.00;;
50547;SDS011;38013;48.810;8.818;2023-01-01T02:01:57;17.20;;;10.48;;
50547;SDS011;38013;48.810;8.818;2023-01-01T02:04:25;14.73;;;8.90;;
50547;SDS011;38013;48.810;8.818;2023-01-01T02:06:52;17.02;;;10.25;;
50547;SDS011;38013;48.810;8.818;2023-01-01T02:09:20;14.68;;;8.57;;
50547;SDS011;38013;48.810;8.818;2023-01-01T02:11:47;13.65;;;7.47;;
50547;SDS011;38013;48.810;8.818;2023-01-01T02:14:14;12.07;;;7.32;;
50547;SDS011;38013;48.810;8.818;2023-01-01T02:19:52;13.82;;;6.15;;
50547;SDS011;38013;48.810;8.818;2023-01-01T02:22:29;10.82;;;6.57;;
50547;SDS011;38013;48.810;8.818;2023-01-01T02:28:00;11.20;;;5.70;;
50547;SDS011;38013;48.810;8.818;2023-01-01T02:30:49;10.07;;;5.80;;
50547;SDS011;38013;48.810;8.818;2023-01-01T02:33:20;8.15;;;5.35;;
50547;SDS011;38013;48.810;8.818;2023-01-01T02:35:51;9.25;;;5.10;;
50547;SDS011;38013;48.810;8.818;2023-01-01T02:38:31;10.60;;;5.20;;
50547;SDS011;38013;48.810;8.818;2023-01-01T02:41:07;7.95;;;4.47;;
50547;SDS011;38013;48.810;8.818;2023-01-01T02:43:45;9.90;;;6.00;;
50547;SDS011;38013;48.810;8.818;2023-01-01T02:46:14;10.98;;;6.00;;
50547;SDS011;38013;48.810;8.818;2023-01-01T02:48:49;11.32;;;6.65;;
50547;SDS011;38013;48.810;8.818;2023-01-01T02:51:28;10.32;;;5.88;;
50547;SDS011;38013;48.810;8.818;2023-01-01T02:56:46;10.38;;;5.78;;
50547;SDS011;38013;48.810;8.818;2023-01-01T02:59:32;11.02;;;5.55;;
50547;SDS011;38013;48.810;8.818;2023-01-01T03:05:38;9.65;;;5.45;;
50547;SDS011;38013;48.810;8.818;2023-01-01T03:11:29;9.85;;;4.93;;
50547;SDS011;38013;48.810;8.818;2023-01-01T03:17:00;9.45;;;5.28;;
50547;SDS011;38013;48.810;8.818;2023-01-01T03:20:01;8.63;;;5.20;;
50547;SDS011;38013;48.810;8.818;2023-01-01T03:22:35;8.73;;;4.72;;
50547;SDS011;38013;48.810;8.818;2023-01-01T03:25:06;9.00;;;4.57;;
50547;SDS011;38013;48.810;8.818;2023-01-01T03:28:11;7.82;;;4.05;;
50547;SDS011;38013;48.810;8.818;2023-01-01T03:30:36;7.60;;;4.15;;
50547;SDS011;38013;48.810;8.818;2023-01-01T03:33:06;7.75;;;4.43;;
50547;SDS011;38013;48.810;8.818;2023-01-01T03:35:46;6.88;;;4.10;;
50547;SDS011;38013;48.810;8.818;2023-01-01T03:38:38;7.57;;;4.22;;
50547;SDS011;38013;48.810;8.818;2023-01-01T03:41:10;7.15;;;3.70;;
50547;SDS011;38013;48.810;8.818;2023-01-01T03:43:55;8.20;;;3.72;;
50547;SDS011;38013;48.810;8.818;2023-01-01T03:46:37;6.30;;;3.50;;
50547;SDS011;38013;48.810;8.818;2023-01-01T03:49:05;7.10;;;3.60;;
50547;SDS011;38013;48.810;8.818;2023-01-01T03:57:19;7.20;;;2.90;;
50547;SDS011;38013;48.810;8.818;2023-01-01T04:00:18;7.00;;;3.75;;
50547;SDS011;38013;48.810;8.818;2023-01-01T04:02:49;7.28;;;3.10;;
50547;SDS011;38013;48.810;8.818;2023-01-01T04:05:34;6.10;;;3.20;;
50547;SDS011;38013;48.810;8.818;2023-01-01T04:08:04;5.57;;;2.95;;
50547;SDS011;38013;48.810;8.818;2023-01-01T04:10:33;5.65;;;2.83;;
50547;SDS011;38013;48.810;8.818;2023-01-01T04:13:04;5.25;;;2.63;;
50547;SDS011;38013;48.810;8.818;2023-01-01T04:15:32;6.00;;;2.53;;
50547;SDS011;38013;48.810;8.818;2023-01-01T04:18:01;5.57;;;2.65;;
50547;SDS011;38013;48.810;8.818;2023-01-01T04:20:28;6.75;;;2.40;;
50547;SDS011;38013;48.810;8.818;2023-01-01T04:22:55;4.78;;;2.05;;
50547;SDS011;38013;48.810;8.818;2023-01-01T04:25:24;5.78;;;2.10;;
50547;SDS011;38013;48.810;8.818;2023-01-01T04:27:51;5.47;;;2.35;;
50547;SDS011;38013;48.810;8.818;2023-01-01T04:30:19;7.95;;;2.50;;
50547;SDS011;38013;48.810;8.818;2023-01-01T04:32:46;7.63;;;2.80;;
50547;SDS011;38013;48.810;8.818;2023-01-01T04:35:13;6.32;;;3.15;;
50547;SDS011;38013;48.810;8.818;2023-01-01T04:37:41;6.10;;;3.30;;
50547;SDS011;38013;48.810;8.818;2023-01-01T04:40:09;7.15;;;2.90;;
50547;SDS011;38013;48.810;8.818;2023-01-01T04:42:38;7.00;;;3.00;;
50547;SDS011;38013;48.810;8.818;2023-01-01T04:45:05;5.38;;;2.60;;
50547;SDS011;38013;48.810;8.818;2023-01-01T04:47:33;5.40;;;2.72;;
50547;SDS011;38013;48.810;8.818;2023-01-01T04:50:00;5.93;;;2.33;;
50547;SDS011;38013;48.810;8.818;2023-01-01T04:52:26;4.97;;;2.20;;
50547;SDS011;38013;48.810;8.818;2023-01-01T04:54:53;5.03;;;2.10;;
50547;SDS011;38013;48.810;8.818;2023-01-01T04:57:20;6.82;;;2.42;;
50547;SDS011;38013;48.810;8.818;2023-01-01T04:59:47;4.13;;;2.17;;
50547;SDS011;38013;48.810;8.818;2023-01-01T05:02:13;8.75;;;2.33;;
50547;SDS011;38013;48.810;8.818;2023-01-01T05:04:40;4.28;;;2.03;;
50547;SDS011;38013;48.810;8.818;2023-01-01T05:07:07;4.40;;;1.85;;
50547;SDS011;38013;48.810;8.818;2023-01-01T05:09:34;4.03;;;2.15;;
50547;SDS011;38013;48.810;8.818;2023-01-01T05:12:01;5.18;;;2.42;;
50547;SDS011;38013;48.810;8.818;2023-01-01T05:14:28;6.82;;;2.55;;
50547;SDS011;38013;48.810;8.818;2023-01-01T05:16:55;6.78;;;2.53;;
50547;SDS011;38013;48.810;8.818;2023-01-01T05:19:22;4.88;;;2.08;;
50547;SDS011;38013;48.810;8.818;2023-01-01T05:21:48;5.68;;;2.45;;
50547;SDS011;38013;48.810;8.818;2023-01-01T05:24:15;5.72;;;2.33;;
50547;SDS011;38013;48.810;8.818;2023-01-01T05:26:43;8.77;;;2.70;;
50547;SDS011;38013;48.810;8.818;2023-01-01T05:29:10;6.65;;;2.70;;
50547;SDS011;38013;48.810;8.818;2023-01-01T05:31:42;5.43;;;1.90;;
50547;SDS011;38013;48.810;8.818;2023-01-01T05:34:10;6.25;;;1.75;;
50547;SDS011;38013;48.810;8.818;2023-01-01T05:36:38;5.32;;;1.77;;
50547;SDS011;38013;48.810;8.818;2023-01-01T05:39:05;3.78;;;1.58;;
50547;SDS011;38013;48.810;8.818;2023-01-01T05:44:03;4.70;;;1.27;;
50547;SDS011;38013;48.810;8.818;2023-01-01T05:46:31;3.10;;;1.15;;
50547;SDS011;38013;48.810;8.818;2023-01-01T05:48:58;3.10;;;1.20;;
50547;SDS011;38013;48.810;8.818;2023-01-01T05:51:26;4.97;;;1.40;;
50547;SDS011;38013;48.810;8.818;2023-01-01T05:53:55;5.38;;;1.63;;
50547;SDS011;38013;48.810;8.818;2023-01-01T05:56:24;3.80;;;1.60;;
50547;SDS011;38013;48.810;8.818;2023-01-01T05:58:52;4.40;;;1.40;;
50547;SDS011;38013;48.810;8.818;2023-01-01T06:01:23;4.38;;;1.45;;
50547;SDS011;38013;48.810;8.818;2023-01-01T06:03:53;3.70;;;1.40;;
50547;SDS011;38013;48.810;8.818;2023-01-01T06:06:22;5.78;;;1.50;;
50547;SDS011;38013;48.810;8.818;2023-01-01T06:08:57;5.88;;;1.77;;
50547;SDS011;38013;48.810;8.818;2023-01-01T06:11:27;5.55;;;1.70;;
50547;SDS011;38013;48.810;8.818;2023-01-01T06:13:55;5.38;;;1.60;;
50547;SDS011;38013;48.810;8.818;2023-01-01T06:16:24;9.85;;;1.90;;
50547;SDS011;38013;48.810;8.818;2023-01-01T06:18:52;3.72;;;1.48;;
50547;SDS011;38013;48.810;8.818;2023-01-01T06:21:19;4.90;;;1.30;;
50547;SDS011;38013;48.810;8.818;2023-01-01T06:26:16;3.83;;;1.63;;
50547;SDS011;38013;48.810;8.818;2023-01-01T06:28:46;3.53;;;1.20;;
50547;SDS011;38013;48.810;8.818;2023-01-01T06:31:14;5.22;;;1.77;;
50547;SDS011;38013;48.810;8.818;2023-01-01T06:33:45;5.90;;;2.00;;
50547;SDS011;38013;48.810;8.818;2023-01-01T06:36:13;6.88;;;1.40;;
50547;SDS011;38013;48.810;8.818;2023-01-01T06:38:44;3.30;;;1.10;;
50547;SDS011;38013;48.810;8.818;2023-01-01T06:41:14;4.70;;;1.38;;
50547;SDS011;38013;48.810;8.818;2023-01-01T06:43:47;7.88;;;1.95;;
50547;SDS011;38013;48.810;8.818;2023-01-01T06:46:18;5.20;;;1.52;;
50547;SDS011;38013;48.810;8.818;2023-01-01T06:48:57;8.77;;;1.58;;
50547;SDS011;38013;48.810;8.818;2023-01-01T06:51:35;3.45;;;1.30;;
50547;SDS011;38013;48.810;8.818;2023-01-01T06:54:05;8.00;;;1.67;;
50547;SDS011;38013;48.810;8.818;2023-01-01T06:56:32;8.30;;;1.88;;
50547;SDS011;38013;48.810;8.818;2023-01-01T06:59:01;5.23;;;1.60;;
50547;SDS011;38013;48.810;8.818;2023-01-01T07:01:30;3.85;;;1.23;;
50547;SDS011;38013;48.810;8.818;2023-01-01T07:04:01;6.30;;;1.60;;
50547;SDS011;38013;48.810;8.818;2023-01-01T07:06:33;6.15;;;1.20;;
50547;SDS011;38013;48.810;8.818;2023-01-01T07:09:00;3.40;;;1.23;;
50547;SDS011;38013;48.810;8.818;2023-01-01T07:11:28;3.13;;;1.27;;
50547;SDS011;38013;48.810;8.818;2023-01-01T07:13:55;3.20;;;1.50;;
50547;SDS011;38013;48.810;8.818;2023-01-01T07:16:22;5.65;;;1.70;;
50547;SDS011;38013;48.810;8.818;2023-01-01T07:18:50;3.97;;;2.00;;
50547;SDS011;38013;48.810;8.818;2023-01-01T07:21:23;3.58;;;1.50;;
50547;SDS011;38013;48.810;8.818;2023-01-01T07:24:11;3.85;;;1.50;;
50547;SDS011;38013;48.810;8.818;2023-01-01T07:26:40;6.03;;;2.00;;
50547;SDS011;38013;48.810;8.818;2023-01-01T07:29:07;4.35;;;1.85;;
50547;SDS011;38013;48.810;8.818;2023-01-01T07:31:35;5.40;;;2.10;;
50547;SDS011;38013;48.810;8.818;2023-01-01T07:34:05;4.30;;;1.98;;
50547;SDS011;38013;48.810;8.818;2023-01-01T07:36:34;5.95;;;2.22;;
50547;SDS011;38013;48.810;8.818;2023-01-01T07:39:01;6.18;;;2.22;;
50547;SDS011;38013;48.810;8.818;2023-01-01T07:41:28;6.38;;;2.38;;
50547;SDS011;38013;48.810;8.818;2023-01-01T07:43:57;6.93;;;2.50;;
50547;SDS011;38013;48.810;8.818;2023-01-01T07:46:24;8.80;;;2.20;;
50547;SDS011;38013;48.810;8.818;2023-01-01T07:48:51;5.82;;;2.50;;
50547;SDS011;38013;48.810;8.818;2023-01-01T07:51:17;6.35;;;2.05;;
50547;SDS011;38013;48.810;8.818;2023-01-01T07:53:44;4.57;;;2.00;;
50547;SDS011;38013;48.810;8.818;2023-01-01T07:56:11;6.85;;;2.33;;
50547;SDS011;38013;48.810;8.818;2023-01-01T07:58:39;7.25;;;2.67;;
50547;SDS011;38013;48.810;8.818;2023-01-01T08:01:08;6.80;;;2.58;;
50547;SDS011;38013;48.810;8.818;2023-01-01T08:03:37;5.80;;;2.38;;
50547;SDS011;38013;48.810;8.818;2023-01-01T08:06:08;5.55;;;2.22;;
50547;SDS011;38013;48.810;8.818;2023-01-01T08:08:37;5.57;;;2.58;;
50547;SDS011;38013;48.810;8.818;2023-01-01T08:11:04;6.38;;;2.30;;
50547;SDS011;38013;48.810;8.818;2023-01-01T08:13:31;4.53;;;2.10;;
50547;SDS011;38013;48.810;8.818;2023-01-01T08:15:58;6.07;;;2.45;;
50547;SDS011;38013;48.810;8.818;2023-01-01T08:18:25;5.20;;;2.40;;
50547;SDS011;38013;48.810;8.818;2023-01-01T08:20:52;6.80;;;2.15;;
50547;SDS011;38013;48.810;8.818;2023-01-01T08:23:19;4.50;;;2.13;;
50547;SDS011;38013;48.810;8.818;2023-01-01T08:25:46;5.05;;;2.47;;
50547;SDS011;38013;48.810;8.818;2023-01-01T08:28:13;7.18;;;2.33;;
50547;SDS011;38013;48.810;8.818;2023-01-01T08:30:39;4.68;;;2.40;;
50547;SDS011;38013;48.810;8.818;2023-01-01T08:33:06;4.53;;;2.03;;
50547;SDS011;38013;48.810;8.818;2023-01-01T08:35:33;5.85;;;2.50;;
50547;SDS011;38013;48.810;8.818;2023-01-01T08:38:02;6.28;;;1.85;;
50547;SDS011;38013;48.810;8.818;2023-01-01T08:40:29;4.20;;;1.98;;
50547;SDS011;38013;48.810;8.818;2023-01-01T08:42:56;5.70;;;2.17;;
50547;SDS011;38013;48.810;8.818;2023-01-01T08:45:23;5.10;;;2.15;;
50547;SDS011;38013;48.810;8.818;2023-01-01T08:47:49;6.82;;;2.50;;
50547;SDS011;38013;48.810;8.818;2023-01-01T08:50:16;5.10;;;2.30;;
50547;SDS011;38013;48.810;8.818;2023-01-01T08:52:43;5.18;;;2.25;;
50547;SDS011;38013;48.810;8.818;2023-01-01T08:55:10;9.10;;;2.53;;
50547;SDS011;38013;48.810;8.818;2023-01-01T08:57:37;4.47;;;2.25;;
50547;SDS011;38013;48.810;8.818;2023-01-01T09:00:03;7.20;;;2.40;;
50547;SDS011;38013;48.810;8.818;2023-01-01T09:02:34;7.80;;;2.40;;
50547;SDS011;38013;48.810;8.818;2023-01-01T09:05:02;5.95;;;2.22;;
50547;SDS011;38013;48.810;8.818;2023-01-01T09:07:29;6.22;;;2.42;;
50547;SDS011;38013;48.810;8.818;2023-01-01T09:09:56;6.38;;;2.40;;
50547;SDS011;38013;48.810;8.818;2023-01-01T09:12:23;5.25;;;1.90;;
50547;SDS011;38013;48.810;8.818;2023-01-01T09:14:49;7.07;;;1.77;;
50547;SDS011;38013;48.810;8.818;2023-01-01T09:17:16;7.45;;;1.40;;
50547;SDS011;38013;48.810;8.818;2023-01-01T09:19:43;5.43;;;1.42;;
50547;SDS011;38013;48.810;8.818;2023-01-01T09:22:10;4.38;;;1.60;;
50547;SDS011;38013;48.810;8.818;2023-01-01T09:24:38;6.68;;;1.50;;
50547;SDS011;38013;48.810;8.818;2023-01-01T09:27:05;6.03;;;1.30;;
50547;SDS011;38013;48.810;8.818;2023-01-01T09:29:31;5.03;;;1.40;;
50547;SDS011;38013;48.810;8.818;2023-01-01T09:31:58;5.40;;;1.50;;
50547;SDS011;38013;48.810;8.818;2023-01-01T09:34:25;5.10;;;1.38;;
50547;SDS011;38013;48.810;8.818;2023-01-01T09:36:52;3.47;;;1.23;;
50547;SDS011;38013;48.810;8.818;2023-01-01T09:39:19;5.93;;;1.40;;
50547;SDS011;38013;48.810;8.818;2023-01-01T09:44:22;4.18;;;1.40;;
50547;SDS011;38013;48.810;8.818;2023-01-01T09:47:21;7.53;;;1.48;;
50547;SDS011;38013;48.810;8.818;2023-01-01T09:50:00;4.80;;;1.52;;
50547;SDS011;38013;48.810;8.818;2023-01-01T09:52:38;4.47;;;1.35;;
50547;SDS011;38013;48.810;8.818;2023-01-01T09:55:15;6.95;;;1.45;;
50547;SDS011;38013;48.810;8.818;2023-01-01T09:57:50;4.38;;;1.40;;
50547;SDS011;38013;48.810;8.818;2023-01-01T10:00:17;7.07;;;1.40;;
50547;SDS011;38013;48.810;8.818;2023-01-01T10:02:58;7.97;;;1.58;;
50547;SDS011;38013;48.810;8.818;2023-01-01T10:11:34;6.03;;;1.30;;
50547;SDS011;38013;48.810;8.818;2023-01-01T10:14:32;4.68;;;1.25;;
50547;SDS011;38013;48.810;8.818;2023-01-01T10:17:29;4.68;;;1.38;;
50547;SDS011;38013;48.810;8.818;2023-01-01T10:20:06;5.32;;;1.48;;
50547;SDS011;38013;48.810;8.818;2023-01-01T10:22:59;4.18;;;1.30;;
50547;SDS011;38013;48.810;8.818;2023-01-01T10:25:37;4.32;;;1.60;;
50547;SDS011;38013;48.810;8.818;2023-01-01T10:28:11;8.10;;;1.40;;
50547;SDS011;38013;48.810;8.818;2023-01-01T10:31:23;5.07;;;1.30;;
50547;SDS011;38013;48.810;8.818;2023-01-01T10:33:56;7.72;;;1.80;;
50547;SDS011;38013;48.810;8.818;2023-01-01T10:36:23;4.60;;;1.38;;
50547;SDS011;38013;48.810;8.818;2023-01-01T10:38:52;12.65;;;2.72;;
50547;SDS011;38013;48.810;8.818;2023-01-01T10:41:19;6.20;;;2.85;;
50547;SDS011;38013;48.810;8.818;2023-01-01T10:43:45;9.15;;;3.22;;
50547;SDS011;38013;48.810;8.818;2023-01-01T10:46:15;6.00;;;2.90;;
50547;SDS011;38013;48.810;8.818;2023-01-01T10:49:05;9.77;;;3.38;;
50547;SDS011;38013;48.810;8.818;2023-01-01T10:51:41;6.75;;;2.83;;
50547;SDS011;38013;48.810;8.818;2023-01-01T10:54:20;9.68;;;4.47;;
50547;SDS011;38013;48.810;8.818;2023-01-01T10:59:52;8.13;;;3.55;;
50547;SDS011;38013;48.810;8.818;2023-01-01T11:02:24;6.05;;;2.75;;
50547;SDS011;38013;48.810;8.818;2023-01-01T11:05:11;10.35;;;3.60;;
50547;SDS011;38013;48.810;8.818;2023-01-01T11:07:47;6.63;;;3.35;;
50547;SDS011;38013;48.810;8.818;2023-01-01T11:10:16;7.97;;;3.13;;
50547;SDS011;38013;48.810;8.818;2023-01-01T11:12:46;8.60;;;3.03;;
50547;SDS011;38013;48.810;8.818;2023-01-01T11:15:39;8.65;;;3.38;;
50547;SDS011;38013;48.810;8.818;2023-01-01T11:18:14;8.13;;;3.08;;
50547;SDS011;38013;48.810;8.818;2023-01-01T11:21:02;9.45;;;3.13;;
50547;SDS011;38013;48.810;8.818;2023-01-01T11:26:07;8.77;;;3.85;;
50547;SDS011;38013;48.810;8.818;2023-01-01T11:28:59;13.45;;;4.75;;
50547;SDS011;38013;48.810;8.818;2023-01-01T11:31:42;10.32;;;3.35;;
50547;SDS011;38013;48.810;8.818;2023-01-01T11:37:06;8.85;;;3.45;;
50547;SDS011;38013;48.810;8.818;2023-01-01T11:39:43;7.10;;;3.47;;
50547;SDS011;38013;48.810;8.818;2023-01-01T11:42:17;10.27;;;3.50;;
50547;SDS011;38013;48.810;8.818;2023-01-01T11:44:56;7.82;;;3.70;;
50547;SDS011;38013;48.810;8.818;2023-01-01T11:47:32;12.55;;;3.13;;
50547;SDS011;38013;48.810;8.818;2023-01-01T11:50:16;6.55;;;2.78;;
50547;SDS011;38013;48.810;8.818;2023-01-01T11:55:59;8.48;;;2.83;;
50547;SDS011;38013;48.810;8.818;2023-01-01T11:58:56;5.88;;;2.63;;
50547;SDS011;38013;48.810;8.818;2023-01-01T12:04:20;6.60;;;2.42;;
50547;SDS011;38013;48.810;8.818;2023-01-01T12:10:15;6.47;;;2.47;;
50547;SDS011;38013;48.810;8.818;2023-01-01T12:13:14;10.07;;;2.42;;
50547;SDS011;38013;48.810;8.818;2023-01-01T12:18:39;7.55;;;2.60;;
50547;SDS011;38013;48.810;8.818;2023-01-01T12:21:17;8.50;;;2.60;;
50547;SDS011;38013;48.810;8.818;2023-01-01T12:23:50;6.53;;;2.47;;
50547;SDS011;38013;48.810;8.818;2023-01-01T12:26:21;6.80;;;2.90;;
50547;SDS011;38013;48.810;8.818;2023-01-01T12:35:29;8.15;;;2.70;;
50547;SDS011;38013;48.810;8.818;2023-01-01T12:38:28;9.32;;;2.45;;
50547;SDS011;38013;48.810;8.818;2023-01-01T12:41:37;6.10;;;2.35;;
50547;SDS011;38013;48.810;8.818;2023-01-01T12:44:43;7.72;;;2.35;;
50547;SDS011;38013;48.810;8.818;2023-01-01T12:47:57;7.40;;;2.22;;
50547;SDS011;38013;48.810;8.818;2023-01-01T12:51:00;10.05;;;2.90;;
50547;SDS011;38013;48.810;8.818;2023-01-01T12:53:56;5.43;;;2.03;;
50547;SDS011;38013;48.810;8.818;2023-01-01T12:59:26;8.27;;;2.13;;
50547;SDS011;38013;48.810;8.818;2023-01-01T13:01:58;8.07;;;2.13;;
50547;SDS011;38013;48.810;8.818;2023-01-01T13:04:28;7.30;;;2.50;;
50547;SDS011;38013;48.810;8.818;2023-01-01T13:06:56;5.82;;;2.05;;
50547;SDS011;38013;48.810;8.818;2023-01-01T13:09:34;8.20;;;2.30;;
50547;SDS011;38013;48.810;8.818;2023-01-01T13:12:11;8.43;;;2.17;;
50547;SDS011;38013;48.810;8.818;2023-01-01T13:14:44;5.73;;;2.53;;
50547;SDS011;38013;48.810;8.818;2023-01-01T13:17:21;8.60;;;2.67;;
50547;SDS011;38013;48.810;8.818;2023-01-01T13:19:53;6.55;;;2.13;;
50547;SDS011;38013;48.810;8.818;2023-01-01T13:22:39;7.32;;;2.33;;
50547;SDS011;38013;48.810;8.818;2023-01-01T13:33:15;5.35;;;2.20;;
50547;SDS011;38013;48.810;8.818;2023-01-01T13:49:32;8.65;;;2.20;;
50547;SDS011;38013;48.810;8.818;2023-01-01T13:52:33;6.43;;;2.20;;
50547;SDS011;38013;48.810;8.818;2023-01-01T13:55:52;8.65;;;2.47;;
50547;SDS011;38013;48.810;8.818;2023-01-01T14:04:28;8.35;;;2.20;;
50547;SDS011;38013;48.810;8.818;2023-01-01T14:07:27;8.77;;;2.25;;
50547;SDS011;38013;48.810;8.818;2023-01-01T14:13:15;9.77;;;2.10;;
50547;SDS011;38013;48.810;8.818;2023-01-01T14:21:15;6.57;;;1.83;;
50547;SDS011;38013;48.810;8.818;2023-01-01T14:23:47;8.38;;;2.00;;
50547;SDS011;38013;48.810;8.818;2023-01-01T14:26:19;6.13;;;2.20;;
50547;SDS011;38013;48.810;8.818;2023-01-01T14:28:53;6.68;;;2.03;;
50547;SDS011;38013;48.810;8.818;2023-01-01T14:31:22;10.70;;;2.17;;
50547;SDS011;38013;48.810;8.818;2023-01-01T14:33:57;8.98;;;1.67;;
50547;SDS011;38013;48.810;8.818;2023-01-01T14:36:25;7.65;;;1.88;;
50547;SDS011;38013;48.810;8.818;2023-01-01T14:38:56;4.43;;;1.65;;
50547;SDS011;38013;48.810;8.818;2023-01-01T14:41:38;7.30;;;2.13;;
50547;SDS011;38013;48.810;8.818;2023-01-01T14:44:15;6.10;;;1.80;;
50547;SDS011;38013;48.810;8.818;2023-01-01T14:46:47;7.65;;;2.13;;
50547;SDS011;38013;48.810;8.818;2023-01-01T14:49:17;9.07;;;2.30;;
50547;SDS011;38013;48.810;8.818;2023-01-01T14:52:07;7.35;;;2.03;;
50547;SDS011;38013;48.810;8.818;2023-01-01T14:54:47;6.18;;;2.10;;
50547;SDS011;38013;48.810;8.818;2023-01-01T14:57:15;9.18;;;2.05;;
50547;SDS011;38013;48.810;8.818;2023-01-01T14:59:47;5.35;;;1.98;;
50547;SDS011;38013;48.810;8.818;2023-01-01T15:02:20;7.70;;;2.03;;
50547;SDS011;38013;48.810;8.818;2023-01-01T15:04:56;6.57;;;2.17;;
50547;SDS011;38013;48.810;8.818;2023-01-01T15:07:28;8.40;;;2.85;;
50547;SDS011;38013;48.810;8.818;2023-01-01T15:09:58;7.38;;;2.45;;
50547;SDS011;38013;48.810;8.818;2023-01-01T15:12:28;7.07;;;2.60;;
50547;SDS011;38013;48.810;8.818;2023-01-01T15:14:57;7.65;;;2.35;;
50547;SDS011;38013;48.810;8.818;2023-01-01T15:17:25;6.68;;;2.30;;
50547;SDS011;38013;48.810;8.818;2023-01-01T15:20:00;7.13;;;2.25;;
50547;SDS011;38013;48.810;8.818;2023-01-01T15:22:31;8.25;;;2.17;;
50547;SDS011;38013;48.810;8.818;2023-01-01T15:25:04;9.32;;;2.25;;
50547;SDS011;38013;48.810;8.818;2023-01-01T15:27:38;6.47;;;2.28;;
50547;SDS011;38013;48.810;8.818;2023-01-01T15:30:05;8.35;;;3.10;;
50547;SDS011;38013;48.810;8.818;2023-01-01T15:32:39;7.40;;;2.28;;
50547;SDS011;38013;48.810;8.818;2023-01-01T15:38:01;11.25;;;3.22;;
50547;SDS011;38013;48.810;8.818;2023-01-01T15:40:41;8.40;;;3.88;;
50547;SDS011;38013;48.810;8.818;2023-01-01T15:43:20;12.85;;;4.70;;
50547;SDS011;38013;48.810;8.818;2023-01-01T15:45:52;9.75;;;3.63;;
50547;SDS011;38013;48.810;8.818;2023-01-01T15:51:14;17.13;;;5.97;;
50547;SDS011;38013;48.810;8.818;2023-01-01T15:53:50;20.02;;;10.60;;
50547;SDS011;38013;48.810;8.818;2023-01-01T15:56:27;17.65;;;9.30;;
50547;SDS011;38013;48.810;8.818;2023-01-01T15:58:58;15.77;;;9.30;;
50547;SDS011;38013;48.810;8.818;2023-01-01T16:01:34;12.75;;;7.22;;
50547;SDS011;38013;48.810;8.818;2023-01-01T16:04:09;14.68;;;5.45;;
50547;SDS011;38013;48.810;8.818;2023-01-01T16:06:54;9.48;;;4.43;;
50547;SDS011;38013;48.810;8.818;2023-01-01T16:09:23;9.50;;;4.18;;
50547;SDS011;38013;48.810;8.818;2023-01-01T16:11:51;12.93;;;4.45;;
50547;SDS011;38013;48.810;8.818;2023-01-01T16:14:20;12.60;;;3.97;;
50547;SDS011;38013;48.810;8.818;2023-01-01T16:16:56;7.97;;;4.30;;
50547;SDS011;38013;48.810;8.818;2023-01-01T16:19:26;9.65;;;4.63;;
50547;SDS011;38013;48.810;8.818;2023-01-01T16:21:55;9.02;;;3.95;;
50547;SDS011;38013;48.810;8.818;2023-01-01T16:24:22;11.52;;;3.95;;
50547;SDS011;38013;48.810;8.818;2023-01-01T16:26:49;10.88;;;4.88;;
50547;SDS011;38013;48.810;8.818;2023-01-01T16:29:17;12.60;;;5.53;;
50547;SDS011;38013;48.810;8.818;2023-01-01T16:31:44;14.45;;;6.03;;
50547;SDS011;38013;48.810;8.818;2023-01-01T16:34:13;12.32;;;5.55;;
50547;SDS011;38013;48.810;8.818;2023-01-01T16:36:40;12.85;;;5.00;;
50547;SDS011;38013;48.810;8.818;2023-01-01T16:39:09;11.88;;;5.05;;
50547;SDS011;38013;48.810;8.818;2023-01-01T16:41:38;10.52;;;4.88;;
50547;SDS011;38013;48.810;8.818;2023-01-01T16:44:10;10.27;;;5.00;;
50547;SDS011;38013;48.810;8.818;2023-01-01T16:46:39;7.90;;;4.20;;
50547;SDS011;38013;48.810;8.818;2023-01-01T16:49:06;12.18;;;4.25;;
50547;SDS011;38013;48.810;8.818;2023-01-01T16:51:33;9.32;;;4.25;;
50547;SDS011;38013;48.810;8.818;2023-01-01T16:54:00;11.82;;;4.30;;
50547;SDS011;38013;48.810;8.818;2023-01-01T16:56:27;11.75;;;4.43;;
50547;SDS011;38013;48.810;8.818;2023-01-01T16:58:55;10.32;;;4.50;;
50547;SDS011;38013;48.810;8.818;2023-01-01T17:01:28;12.07;;;4.55;;
50547;SDS011;38013;48.810;8.818;2023-01-01T17:03:55;9.85;;;4.82;;
50547;SDS011;38013;48.810;8.818;2023-01-01T17:06:22;9.75;;;4.15;;
50547;SDS011;38013;48.810;8.818;2023-01-01T17:08:49;12.93;;;4.13;;